Time;durP1;ratioP1;P1;durP2;ratioP2;P2;SDS_P1;SDS_P2;PMS_P1;PMS_P2;Temp;Humidity;BMP_temperature;BMP_pressure;BME280_temperature;BME280_humidity;BME280_pressure;Samples;Min_cycle;Max_cycle;Signal;HPM_P1;HPM_P2
2023/08/05 00:00:07;;;;;;;2.78;1.65;;;;;;;;;;5031903;28;20050;-57
2023/08/05 00:02:34;;;;;;;4.80;1.75;;;;;;;;;;5034707;28;20133;-54
2023/08/05 00:05:01;;;;;;;4.00;1.90;;;;;;;;;;5035419;28;20042;-52
2023/08/05 00:07:29;;;;;;;4.53;2.70;;;;;;;;;;5035492;28;20053;-53
2023/08/05 00:09:55;;;;;;;4.00;2.63;;;;;;;;;;5035500;28;20067;-56
2023/08/05 00:12:22;;;;;;;2.83;1.48;;;;;;;;;;5035410;28;20418;-56
2023/08/05 00:14:49;;;;;;;4.35;1.75;;;;;;;;;;5030580;28;20522;-57
2023/08/05 00:17:15;;;;;;;3.05;1.63;;;;;;;;;;5015553;28;20081;-56
2023/08/05 00:19:43;;;;;;;3.05;1.73;;;;;;;;;;5015788;28;20490;-56
2023/08/05 00:22:10;;;;;;;4.30;2.78;;;;;;;;;;5015490;28;20046;-52
2023/08/05 00:24:38;;;;;;;3.55;1.90;;;;;;;;;;5015344;28;20046;-58
2023/08/05 00:27:05;;;;;;;7.55;4.53;;;;;;;;;;5029742;28;20414;-56
2023/08/05 00:29:32;;;;;;;3.78;2.30;;;;;;;;;;5034712;28;20136;-54
2023/08/05 00:31:59;;;;;;;4.60;2.40;;;;;;;;;;5034592;28;20053;-55
2023/08/05 00:34:25;;;;;;;3.38;2.00;;;;;;;;;;5034903;28;20140;-57
2023/08/05 00:36:52;;;;;;;4.70;3.10;;;;;;;;;;5034902;28;20053;-56
2023/08/05 00:39:19;;;;;;;3.13;1.85;;;;;;;;;;5034764;28;20053;-55
2023/08/05 00:41:46;;;;;;;3.80;1.90;;;;;;;;;;5034356;28;20132;-56
2023/08/05 00:44:13;;;;;;;3.20;1.95;;;;;;;;;;5034696;28;20057;-55
2023/08/05 00:46:40;;;;;;;7.20;2.20;;;;;;;;;;5034738;28;20512;-52
2023/08/05 00:49:07;;;;;;;4.68;2.50;;;;;;;;;;5034369;28;20046;-52
2023/08/05 00:51:34;;;;;;;3.08;2.10;;;;;;;;;;5034597;28;20534;-55
2023/08/05 00:54:01;;;;;;;3.60;1.77;;;;;;;;;;5034476;28;20045;-53
2023/08/05 00:56:27;;;;;;;3.42;1.80;;;;;;;;;;5047696;22;20045;-56
2023/08/05 00:58:55;;;;;;;2.90;1.90;;;;;;;;;;5011667;28;20064;-59
2023/08/05 01:01:22;;;;;;;3.20;2.05;;;;;;;;;;5014211;28;20366;-58
2023/08/05 01:03:49;;;;;;;3.90;2.10;;;;;;;;;;5022240;28;20048;-58
2023/08/05 01:06:16;;;;;;;4.65;2.33;;;;;;;;;;5037368;28;20136;-59
2023/08/05 01:08:44;;;;;;;5.15;2.20;;;;;;;;;;5042020;28;20096;-57
2023/08/05 01:11:11;;;;;;;5.78;2.40;;;;;;;;;;5033565;28;20402;-57
2023/08/05 01:13:39;;;;;;;5.20;2.30;;;;;;;;;;5032651;28;20045;-55
2023/08/05 01:16:07;;;;;;;4.55;2.38;;;;;;;;;;5033640;28;20439;-57
2023/08/05 01:18:36;;;;;;;3.92;2.40;;;;;;;;;;5033667;28;20042;-59
2023/08/05 01:21:06;;;;;;;5.87;2.33;;;;;;;;;;5033376;28;20084;-57
2023/08/05 01:23:38;;;;;;;4.53;2.55;;;;;;;;;;5033445;28;20088;-58
2023/08/05 01:26:06;;;;;;;4.32;2.50;;;;;;;;;;5033294;28;20085;-59
2023/08/05 01:28:34;;;;;;;4.80;2.75;;;;;;;;;;5033416;28;20085;-59
2023/08/05 01:31:02;;;;;;;4.40;2.42;;;;;;;;;;5033257;28;20049;-59
2023/08/05 01:33:29;;;;;;;3.80;2.50;;;;;;;;;;5033159;28;20081;-58
2023/08/05 01:35:56;;;;;;;5.15;2.58;;;;;;;;;;5033246;28;20053;-58
2023/08/05 01:38:22;;;;;;;6.10;2.70;;;;;;;;;;5033388;28;20059;-57
2023/08/05 01:40:49;;;;;;;5.60;2.50;;;;;;;;;;5033282;28;20410;-57
2023/08/05 01:43:17;;;;;;;3.67;2.20;;;;;;;;;;5032960;28;20056;-59
2023/08/05 01:45:43;;;;;;;4.55;2.55;;;;;;;;;;5032995;28;20056;-58
2023/08/05 01:48:10;;;;;;;5.30;2.88;;;;;;;;;;5033157;28;20406;-57
2023/08/05 01:50:37;;;;;;;4.43;2.80;;;;;;;;;;5032967;28;20046;-58
2023/08/05 01:53:04;;;;;;;5.38;2.40;;;;;;;;;;5032786;28;20529;-59
2023/08/05 01:55:30;;;;;;;4.63;2.40;;;;;;;;;;5033112;28;20217;-58
2023/08/05 01:57:57;;;;;;;4.65;2.67;;;;;;;;;;5032818;28;20057;-56
2023/08/05 02:00:25;;;;;;;4.57;2.83;;;;;;;;;;5032797;28;20466;-59
2023/08/05 02:02:51;;;;;;;4.13;2.80;;;;;;;;;;5032781;28;20045;-58
2023/08/05 02:05:18;;;;;;;3.65;2.45;;;;;;;;;;5032496;28;20041;-59
2023/08/05 02:07:45;;;;;;;4.05;2.58;;;;;;;;;;5032530;28;20045;-59
2023/08/05 02:10:11;;;;;;;3.88;2.55;;;;;;;;;;5032542;28;20053;-59
2023/08/05 02:12:38;;;;;;;3.90;2.65;;;;;;;;;;5032270;28;20053;-57
2023/08/05 02:15:05;;;;;;;4.85;2.72;;;;;;;;;;5032265;28;20041;-58
2023/08/05 02:17:33;;;;;;;4.10;2.72;;;;;;;;;;5032651;28;20477;-58
2023/08/05 02:20:00;;;;;;;4.20;2.53;;;;;;;;;;5032435;28;20051;-59
2023/08/05 02:22:26;;;;;;;4.30;2.38;;;;;;;;;;5031820;28;20479;-56
2023/08/05 02:24:53;;;;;;;3.72;2.35;;;;;;;;;;5032196;28;20049;-58
2023/08/05 02:27:20;;;;;;;3.38;2.17;;;;;;;;;;5032553;28;20128;-59
2023/08/05 02:29:46;;;;;;;3.50;2.05;;;;;;;;;;5032550;28;20041;-58
2023/08/05 02:32:13;;;;;;;2.97;1.80;;;;;;;;;;5032313;28;20055;-58
2023/08/05 02:34:41;;;;;;;3.67;1.90;;;;;;;;;;5031698;28;20045;-59
2023/08/05 02:37:07;;;;;;;2.88;1.80;;;;;;;;;;5032327;28;20559;-59
2023/08/05 02:39:34;;;;;;;2.55;1.58;;;;;;;;;;5032214;28;20049;-59
2023/08/05 02:42:01;;;;;;;3.90;1.60;;;;;;;;;;5031852;28;20129;-57
2023/08/05 02:44:27;;;;;;;2.42;1.67;;;;;;;;;;5031761;28;20060;-57
2023/08/05 02:46:54;;;;;;;2.35;1.38;;;;;;;;;;5031957;28;20483;-60
2023/08/05 02:49:20;;;;;;;2.60;1.30;;;;;;;;;;5031855;28;20049;-57
2023/08/05 02:51:48;;;;;;;1.70;0.90;;;;;;;;;;5031819;28;20056;-59
2023/08/05 02:54:16;;;;;;;2.95;1.13;;;;;;;;;;5031921;28;20077;-55
2023/08/05 02:56:43;;;;;;;1.35;0.90;;;;;;;;;;5031995;28;20471;-57
2023/08/05 02:59:10;;;;;;;2.88;1.00;;;;;;;;;;5032067;28;20128;-56
2023/08/05 03:01:36;;;;;;;1.70;1.00;;;;;;;;;;5031323;28;20481;-57
2023/08/05 03:04:03;;;;;;;2.08;0.93;;;;;;;;;;5031345;28;20483;-58
2023/08/05 03:06:30;;;;;;;2.65;1.17;;;;;;;;;;5031590;28;20055;-58
2023/08/05 03:08:58;;;;;;;1.42;1.00;;;;;;;;;;5031654;28;20072;-59
2023/08/05 03:11:25;;;;;;;1.35;0.90;;;;;;;;;;5031483;28;20523;-59
2023/08/05 03:13:51;;;;;;;2.95;1.40;;;;;;;;;;5031441;28;20057;-58
2023/08/05 03:16:18;;;;;;;2.42;0.95;;;;;;;;;;5031319;28;20414;-59
2023/08/05 03:18:45;;;;;;;2.38;1.08;;;;;;;;;;5031450;28;20052;-59
2023/08/05 03:21:11;;;;;;;1.98;1.20;;;;;;;;;;5031629;28;20041;-59
2023/08/05 03:23:38;;;;;;;1.90;1.00;;;;;;;;;;5031311;28;20499;-58
2023/08/05 03:26:06;;;;;;;2.63;1.20;;;;;;;;;;5031459;28;20071;-59
2023/08/05 03:28:33;;;;;;;2.40;1.30;;;;;;;;;;5031267;28;20049;-59
2023/08/05 03:31:00;;;;;;;2.10;1.10;;;;;;;;;;5031313;28;20148;-59
2023/08/05 03:33:27;;;;;;;2.40;1.30;;;;;;;;;;5031663;28;20121;-58
2023/08/05 03:35:53;;;;;;;2.00;1.15;;;;;;;;;;5031803;28;20049;-59
2023/08/05 03:38:20;;;;;;;2.35;1.25;;;;;;;;;;5035570;28;20564;-58
2023/08/05 03:40:46;;;;;;;2.92;1.58;;;;;;;;;;5035183;28;20061;-57
2023/08/05 03:43:14;;;;;;;3.45;1.45;;;;;;;;;;5035084;28;20121;-58
2023/08/05 03:45:41;;;;;;;3.95;1.50;;;;;;;;;;5035309;28;20136;-57
2023/08/05 03:48:08;;;;;;;2.70;1.40;;;;;;;;;;5035402;28;20049;-57
2023/08/05 03:50:34;;;;;;;2.45;1.38;;;;;;;;;;5035037;28;20459;-58
2023/08/05 03:53:01;;;;;;;3.75;1.73;;;;;;;;;;5035150;28;20337;-57
2023/08/05 03:55:28;;;;;;;3.00;1.60;;;;;;;;;;5035139;28;20049;-58
2023/08/05 03:57:55;;;;;;;2.88;1.55;;;;;;;;;;5034963;28;20383;-58
2023/08/05 04:00:23;;;;;;;3.33;1.90;;;;;;;;;;5035323;28;20080;-58
2023/08/05 04:02:49;;;;;;;4.22;2.03;;;;;;;;;;5034879;28;20421;-57
2023/08/05 04:05:16;;;;;;;2.88;1.85;;;;;;;;;;5035095;28;20053;-58
2023/08/05 04:07:42;;;;;;;3.88;2.13;;;;;;;;;;5034981;28;20049;-56
2023/08/05 04:10:12;;;;;;;4.13;2.30;;;;;;;;;;5035124;28;20053;-58
2023/08/05 04:12:38;;;;;;;4.18;2.33;;;;;;;;;;5033583;28;20060;-57
2023/08/05 04:15:07;;;;;;;3.88;2.10;;;;;;;;;;5034946;28;20052;-58
2023/08/05 04:17:35;;;;;;;5.18;2.47;;;;;;;;;;5034959;28;20132;-59
2023/08/05 04:20:02;;;;;;;3.85;2.28;;;;;;;;;;5034566;28;20418;-58
2023/08/05 04:22:30;;;;;;;3.80;2.63;;;;;;;;;;5034808;28;20041;-58
2023/08/05 04:24:57;;;;;;;3.63;2.33;;;;;;;;;;5034607;28;20490;-58
2023/08/05 04:27:24;;;;;;;3.90;2.60;;;;;;;;;;5034607;28;20041;-56
2023/08/05 04:29:51;;;;;;;4.32;2.88;;;;;;;;;;5034652;28;20554;-58
2023/08/05 04:32:17;;;;;;;4.07;2.67;;;;;;;;;;5034630;28;20116;-58
2023/08/05 04:34:46;;;;;;;4.90;2.80;;;;;;;;;;5034202;28;20087;-58
2023/08/05 04:37:16;;;;;;;4.63;3.00;;;;;;;;;;5034397;28;20091;-58
2023/08/05 04:39:43;;;;;;;6.32;3.45;;;;;;;;;;5034373;28;20096;-59
2023/08/05 04:42:10;;;;;;;5.03;2.90;;;;;;;;;;5034369;28;20054;-58
2023/08/05 04:44:37;;;;;;;4.32;2.80;;;;;;;;;;5034433;28;20041;-57
2023/08/05 04:47:04;;;;;;;5.90;3.20;;;;;;;;;;5034839;28;20110;-58
2023/08/05 04:49:31;;;;;;;5.30;3.53;;;;;;;;;;5049240;28;20572;-58
2023/08/05 04:51:59;;;;;;;5.78;4.05;;;;;;;;;;5045134;28;20124;-58
2023/08/05 04:54:25;;;;;;;5.18;3.60;;;;;;;;;;5045575;28;20409;-55
2023/08/05 04:56:52;;;;;;;5.55;3.78;;;;;;;;;;5045986;28;20099;-56
2023/08/05 04:59:19;;;;;;;5.40;3.72;;;;;;;;;;5044009;28;20440;-58
2023/08/05 05:01:45;;;;;;;4.78;3.45;;;;;;;;;;5045039;28;20117;-58
2023/08/05 05:04:12;;;;;;;5.82;4.28;;;;;;;;;;5052720;28;20053;-59
2023/08/05 05:06:38;;;;;;;5.68;4.03;;;;;;;;;;5054183;28;20489;-58
2023/08/05 05:09:06;;;;;;;5.90;4.22;;;;;;;;;;5054023;28;20049;-58
2023/08/05 05:11:33;;;;;;;5.68;4.15;;;;;;;;;;5054006;28;20568;-58
2023/08/05 05:13:59;;;;;;;6.18;4.20;;;;;;;;;;5053596;28;20528;-58
2023/08/05 05:16:26;;;;;;;6.50;3.90;;;;;;;;;;5054073;28;20136;-56
2023/08/05 05:18:53;;;;;;;5.53;4.00;;;;;;;;;;5054138;28;20077;-58
2023/08/05 05:21:19;;;;;;;5.57;3.97;;;;;;;;;;5053652;28;20131;-56
2023/08/05 05:23:46;;;;;;;5.38;3.70;;;;;;;;;;5053768;28;20494;-58
2023/08/05 05:26:14;;;;;;;5.00;3.50;;;;;;;;;;5053548;28;20055;-58
2023/08/05 05:28:40;;;;;;;6.25;3.72;;;;;;;;;;5053542;28;20488;-58
2023/08/05 05:31:07;;;;;;;5.60;3.85;;;;;;;;;;5053448;28;20131;-57
2023/08/05 05:33:34;;;;;;;6.07;3.75;;;;;;;;;;5053470;28;20450;-58
2023/08/05 05:36:00;;;;;;;6.68;4.30;;;;;;;;;;5053316;28;20049;-56
2023/08/05 05:38:27;;;;;;;7.38;4.05;;;;;;;;;;5053238;28;20049;-55
2023/08/05 05:40:54;;;;;;;6.00;4.13;;;;;;;;;;5053275;28;20045;-58
2023/08/05 05:43:23;;;;;;;6.00;4.18;;;;;;;;;;5053303;28;20052;-58
2023/08/05 05:45:52;;;;;;;6.18;3.95;;;;;;;;;;5053142;28;20080;-58
2023/08/05 05:48:19;;;;;;;7.18;4.20;;;;;;;;;;5053567;28;20516;-58
2023/08/05 05:50:46;;;;;;;6.40;4.22;;;;;;;;;;5052979;28;20049;-59
2023/08/05 05:53:14;;;;;;;6.75;4.75;;;;;;;;;;5053107;28;20439;-57
2023/08/05 05:55:42;;;;;;;9.18;5.50;;;;;;;;;;5052852;28;20478;-58
2023/08/05 05:58:08;;;;;;;7.68;4.47;;;;;;;;;;5053148;28;20049;-58
2023/08/05 06:00:39;;;;;;;6.25;3.85;;;;;;;;;;5052492;28;20087;-58
2023/08/05 06:03:06;;;;;;;6.30;3.92;;;;;;;;;;5053003;28;20482;-58
2023/08/05 06:05:32;;;;;;;6.50;4.65;;;;;;;;;;5052677;28;20053;-58
2023/08/05 06:07:59;;;;;;;6.75;4.60;;;;;;;;;;5053123;28;20084;-58
2023/08/05 06:10:26;;;;;;;5.90;4.13;;;;;;;;;;5053110;28;20045;-58
2023/08/05 06:12:52;;;;;;;6.22;4.35;;;;;;;;;;5052553;28;20045;-56
2023/08/05 06:15:21;;;;;;;6.07;4.43;;;;;;;;;;5052554;28;20230;-56
2023/08/05 06:17:49;;;;;;;6.40;4.72;;;;;;;;;;5052687;28;20482;-57
2023/08/05 06:20:16;;;;;;;5.82;4.72;;;;;;;;;;5052575;28;20057;-58
2023/08/05 06:22:42;;;;;;;7.20;5.07;;;;;;;;;;5052425;28;20048;-58
2023/08/05 06:25:09;;;;;;;6.15;4.88;;;;;;;;;;5052665;28;20388;-57
2023/08/05 06:27:36;;;;;;;6.45;4.97;;;;;;;;;;5052740;28;20513;-57
2023/08/05 06:30:03;;;;;;;6.78;5.07;;;;;;;;;;5052437;28;20056;-58
2023/08/05 06:32:29;;;;;;;6.40;5.32;;;;;;;;;;5052394;28;20053;-57
2023/08/05 06:34:57;;;;;;;6.57;4.78;;;;;;;;;;5052261;28;20093;-55
2023/08/05 06:37:24;;;;;;;5.55;4.40;;;;;;;;;;5052159;28;20056;-58
2023/08/05 06:39:50;;;;;;;5.90;4.85;;;;;;;;;;5052185;28;20087;-58
2023/08/05 06:42:17;;;;;;;6.60;4.90;;;;;;;;;;5052435;28;20049;-58
2023/08/05 06:44:44;;;;;;;6.70;5.00;;;;;;;;;;5052093;28;20051;-58
2023/08/05 06:47:11;;;;;;;7.75;5.20;;;;;;;;;;5032415;28;20058;-58
2023/08/05 06:49:37;;;;;;;7.10;6.22;;;;;;;;;;5031983;28;20045;-58
2023/08/05 06:52:06;;;;;;;6.65;5.13;;;;;;;;;;5035535;28;20044;-56
2023/08/05 06:54:32;;;;;;;8.02;6.15;;;;;;;;;;5034831;28;20067;-57
2023/08/05 06:57:00;;;;;;;8.10;6.35;;;;;;;;;;5033743;28;20041;-58
2023/08/05 06:59:28;;;;;;;8.23;6.38;;;;;;;;;;5026081;22;20053;-77
2023/08/05 07:01:55;;;;;;;8.18;5.90;;;;;;;;;;5009768;28;20054;-77
2023/08/05 07:04:21;;;;;;;7.88;5.97;;;;;;;;;;5015464;28;20096;-76
2023/08/05 07:06:48;;;;;;;7.50;5.55;;;;;;;;;;5025206;28;20049;-78
2023/08/05 07:09:16;;;;;;;7.88;5.60;;;;;;;;;;5033935;28;20108;-78
2023/08/05 07:11:42;;;;;;;8.20;5.88;;;;;;;;;;5035562;28;20140;-78
2023/08/05 07:14:09;;;;;;;7.18;5.40;;;;;;;;;;5036742;28;20131;-78
2023/08/05 07:16:35;;;;;;;6.93;5.22;;;;;;;;;;5038543;28;20052;-79
2023/08/05 07:19:02;;;;;;;6.38;4.72;;;;;;;;;;5016509;28;20045;-78
2023/08/05 07:21:28;;;;;;;7.15;5.22;;;;;;;;;;5014676;28;20054;-78
2023/08/05 07:23:55;;;;;;;6.47;4.45;;;;;;;;;;5012285;28;20064;-78
2023/08/05 07:26:23;;;;;;;6.60;4.72;;;;;;;;;;5021793;28;20045;-79
2023/08/05 07:28:50;;;;;;;6.97;5.45;;;;;;;;;;5028044;28;20500;-79
2023/08/05 07:31:17;;;;;;;6.70;4.95;;;;;;;;;;5031190;28;20463;-79
2023/08/05 07:33:46;;;;;;;5.78;4.85;;;;;;;;;;5036302;28;20128;-80
2023/08/05 07:36:15;;;;;;;8.20;5.47;;;;;;;;;;5030336;28;20057;-83
2023/08/05 07:38:43;;;;;;;7.30;4.78;;;;;;;;;;5029053;28;20042;-81
2023/08/05 07:41:11;;;;;;;6.20;4.80;;;;;;;;;;5024460;28;20105;-85
2023/08/05 07:43:39;;;;;;;6.38;5.15;;;;;;;;;;5022619;28;20050;-79
2023/08/05 07:46:06;;;;;;;7.22;5.05;;;;;;;;;;5015685;28;20060;-82
2023/08/05 07:48:35;;;;;;;117.93;45.78;;;;;;;;;;5040611;28;20037;-82
2023/08/05 07:51:02;;;;;;;19.88;10.38;;;;;;;;;;5023793;28;20480;-83
2023/08/05 07:53:30;;;;;;;26.85;14.07;;;;;;;;;;5015149;28;22063;-80
2023/08/05 07:55:58;;;;;;;29.83;14.98;;;;;;;;;;5022851;28;20046;-79
2023/08/05 07:58:24;;;;;;;25.42;12.30;;;;;;;;;;5028641;28;20108;-79
2023/08/05 08:00:56;;;;;;;28.35;13.48;;;;;;;;;;5018539;28;20259;-80
2023/08/05 08:03:27;;;;;;;13.07;7.97;;;;;;;;;;5016371;28;20046;-78
2023/08/05 08:05:53;;;;;;;;;;;;;;;;;;5022933;28;20076;-79
2023/08/05 08:08:22;;;;;;;10.63;7.13;;;;;;;;;;5028064;28;19921;-79
2023/08/05 08:10:49;;;;;;;12.73;7.55;;;;;;;;;;5029044;28;20093;-80
2023/08/05 08:13:15;;;;;;;9.27;6.00;;;;;;;;;;5018187;28;20109;-79
2023/08/05 08:15:42;;;;;;;9.48;6.25;;;;;;;;;;5012701;28;20057;-79
2023/08/05 08:18:10;;;;;;;11.38;6.18;;;;;;;;;;5012102;28;20078;-81
2023/08/05 08:20:37;;;;;;;9.65;6.07;;;;;;;;;;5014501;28;20053;-81
2023/08/05 08:23:06;;;;;;;8.45;5.68;;;;;;;;;;5018353;28;20125;-82
2023/08/05 08:25:32;;;;;;;7.18;5.22;;;;;;;;;;5025815;28;20567;-81
2023/08/05 08:28:01;;;;;;;7.90;5.40;;;;;;;;;;5028696;28;20070;-83
2023/08/05 08:30:28;;;;;;;8.93;4.95;;;;;;;;;;5030967;28;20042;-81
2023/08/05 08:32:54;;;;;;;9.55;5.00;;;;;;;;;;5032413;28;20046;-77
2023/08/05 08:35:22;;;;;;;6.55;4.90;;;;;;;;;;5034264;28;20480;-78
2023/08/05 08:37:49;;;;;;;6.72;5.13;;;;;;;;;;5015137;28;20048;-79
2023/08/05 08:40:16;;;;;;;8.75;5.53;;;;;;;;;;5009442;28;20436;-79
2023/08/05 08:42:43;;;;;;;8.77;5.32;;;;;;;;;;5026302;28;20180;-79
2023/08/05 08:45:12;;;;;;;8.00;5.78;;;;;;;;;;5038035;28;20045;-78
2023/08/05 08:47:39;;;;;;;7.90;5.40;;;;;;;;;;5039599;28;20053;-78
2023/08/05 08:50:07;;;;;;;6.22;4.93;;;;;;;;;;5042706;28;20049;-78
2023/08/05 08:52:36;;;;;;;6.28;4.60;;;;;;;;;;5045365;28;20045;-78
2023/08/05 08:55:04;;;;;;;6.97;5.57;;;;;;;;;;5043241;28;20049;-77
2023/08/05 08:57:31;;;;;;;6.35;4.80;;;;;;;;;;5029690;28;20045;-79
2023/08/05 08:59:57;;;;;;;5.97;4.43;;;;;;;;;;5038696;28;20065;-78
2023/08/05 09:02:25;;;;;;;6.10;4.88;;;;;;;;;;5039079;28;20109;-78
2023/08/05 09:04:52;;;;;;;8.23;5.22;;;;;;;;;;5038830;28;20061;-77
2023/08/05 09:07:21;;;;;;;7.05;5.57;;;;;;;;;;5040358;28;20305;-79
2023/08/05 09:09:49;;;;;;;6.60;5.18;;;;;;;;;;5039686;28;20496;-78
2023/08/05 09:12:16;;;;;;;5.57;4.53;;;;;;;;;;5039484;28;20612;-77
2023/08/05 09:14:43;;;;;;;5.68;4.47;;;;;;;;;;5038823;28;20045;-78
2023/08/05 09:17:13;;;;;;;7.80;4.88;;;;;;;;;;5039086;28;20303;-78
2023/08/05 09:19:41;;;;;;;;;;;;;;;;;;5039567;28;20045;-76
2023/08/05 09:22:14;;;;;;;6.30;4.72;;;;;;;;;;5039978;28;19921;-78
2023/08/05 09:24:40;;;;;;;5.30;4.68;;;;;;;;;;5037812;28;20052;-78
2023/08/05 09:27:08;;;;;;;5.80;4.18;;;;;;;;;;5038136;28;20049;-77
2023/08/05 09:29:36;;;;;;;6.68;4.78;;;;;;;;;;5038289;28;20120;-78
2023/08/05 09:32:04;;;;;;;6.55;4.70;;;;;;;;;;5040787;28;20042;-78
2023/08/05 09:34:35;;;;;;;6.55;4.82;;;;;;;;;;5042465;28;20045;-77
2023/08/05 09:37:03;;;;;;;6.05;5.03;;;;;;;;;;5039779;28;20045;-78
2023/08/05 09:39:44;;;;;;;6.18;4.78;;;;;;;;;;5041252;28;20045;-79
2023/08/05 09:42:24;;;;;;;6.63;5.15;;;;;;;;;;5040025;28;20049;-77
2023/08/05 09:44:52;;;;;;;8.23;6.03;;;;;;;;;;5037907;28;20045;-79
2023/08/05 09:47:23;;;;;;;8.77;6.45;;;;;;;;;;5036404;28;20045;-77
2023/08/05 09:49:50;;;;;;;10.07;8.02;;;;;;;;;;5035202;28;20053;-77
2023/08/05 09:52:22;;;;;;;9.50;7.53;;;;;;;;;;5034898;28;20072;-78
2023/08/05 09:54:55;;;;;;;8.05;7.03;;;;;;;;;;5035886;28;20056;-78
2023/08/05 09:57:24;;;;;;;12.30;9.35;;;;;;;;;;5037876;28;20050;-78
2023/08/05 09:59:53;;;;;;;9.35;7.47;;;;;;;;;;5039227;28;20558;-79
2023/08/05 10:02:25;;;;;;;11.00;8.38;;;;;;;;;;5038018;28;20056;-78
2023/08/05 10:04:53;;;;;;;8.20;7.28;;;;;;;;;;5036311;28;20409;-77
2023/08/05 10:07:21;;;;;;;10.23;8.60;;;;;;;;;;5034429;28;20045;-77
2023/08/05 10:09:48;;;;;;;10.52;7.70;;;;;;;;;;5034959;28;20068;-78
2023/08/05 10:12:17;;;;;;;10.23;7.35;;;;;;;;;;5034865;28;20458;-79
2023/08/05 10:14:46;;;;;;;7.57;6.75;;;;;;;;;;5016722;28;20412;-79
2023/08/05 10:17:12;;;;;;;8.55;7.10;;;;;;;;;;5015420;28;20417;-78
2023/08/05 10:19:39;;;;;;;9.63;7.30;;;;;;;;;;5016079;28;20568;-77
2023/08/05 10:22:10;;;;;;;10.05;7.93;;;;;;;;;;5015688;28;20049;-78
2023/08/05 10:24:56;;;;;;;8.48;6.72;;;;;;;;;;5017526;28;20141;-79
2023/08/05 10:27:39;;;;;;;9.05;7.00;;;;;;;;;;5017822;28;20042;-79
2023/08/05 10:30:10;;;;;;;11.20;8.60;;;;;;;;;;5019312;28;20057;-78
2023/08/05 10:32:49;;;;;;;7.55;6.75;;;;;;;;;;5019903;28;20053;-79
2023/08/05 10:35:29;;;;;;;8.13;6.55;;;;;;;;;;5019606;28;20496;-78
2023/08/05 10:38:12;;;;;;;7.63;6.30;;;;;;;;;;5020060;28;20137;-78
2023/08/05 10:40:40;;;;;;;6.78;5.85;;;;;;;;;;5017624;28;20543;-78
2023/08/05 10:43:08;;;;;;;7.65;6.85;;;;;;;;;;5020655;28;20121;-78
2023/08/05 10:45:40;;;;;;;7.60;6.80;;;;;;;;;;5020109;28;20128;-78
2023/08/05 10:48:13;;;;;;;7.43;6.57;;;;;;;;;;5019658;28;20056;-78
2023/08/05 10:50:41;;;;;;;7.78;6.88;;;;;;;;;;5019611;28;20072;-78
2023/08/05 10:53:08;;;;;;;7.60;6.57;;;;;;;;;;5017576;28;20068;-78
2023/08/05 10:55:48;;;;;;;8.00;7.20;;;;;;;;;;5016064;28;20054;-78
2023/08/05 10:58:15;;;;;;;8.17;7.37;;;;;;;;;;5015443;28;20046;-77
2023/08/05 11:00:44;;;;;;;9.13;8.20;;;;;;;;;;5016107;28;20105;-77
2023/08/05 11:03:31;;;;;;;9.77;7.45;;;;;;;;;;5015931;28;20077;-78
2023/08/05 11:06:05;;;;;;;10.00;8.18;;;;;;;;;;5016774;28;20054;-78
2023/08/05 11:08:33;;;;;;;8.40;7.50;;;;;;;;;;5018522;28;20050;-79
2023/08/05 11:11:04;;;;;;;7.50;6.70;;;;;;;;;;5017836;28;20408;-79
2023/08/05 11:13:38;;;;;;;7.95;6.95;;;;;;;;;;5017909;28;20054;-79
2023/08/05 11:16:07;;;;;;;8.52;7.63;;;;;;;;;;5018119;28;20496;-78
2023/08/05 11:18:34;;;;;;;8.57;7.68;;;;;;;;;;5018014;28;20046;-79
2023/08/05 11:21:02;;;;;;;9.27;7.60;;;;;;;;;;5018126;28;20133;-78
2023/08/05 11:23:29;;;;;;;8.35;7.55;;;;;;;;;;5018425;28;20049;-78
2023/08/05 11:25:59;;;;;;;9.45;8.52;;;;;;;;;;5018482;28;20136;-79
2023/08/05 11:28:26;;;;;;;9.70;7.45;;;;;;;;;;5018780;28;20401;-78
2023/08/05 11:30:53;;;;;;;9.43;7.85;;;;;;;;;;5018550;28;20413;-78
2023/08/05 11:33:22;;;;;;;9.10;7.57;;;;;;;;;;5018238;28;20104;-78
2023/08/05 11:35:51;;;;;;;9.15;7.97;;;;;;;;;;5018307;28;20053;-79
2023/08/05 11:38:19;;;;;;;8.40;7.53;;;;;;;;;;5018936;28;20053;-79
2023/08/05 11:40:47;;;;;;;8.45;7.45;;;;;;;;;;5017566;28;20081;-79
2023/08/05 11:43:15;;;;;;;9.23;7.10;;;;;;;;;;5018244;28;20046;-78
2023/08/05 11:45:42;;;;;;;8.70;7.40;;;;;;;;;;5017393;28;20440;-78
2023/08/05 11:48:17;;;;;;;8.75;7.68;;;;;;;;;;5017181;28;20042;-78
2023/08/05 11:50:46;;;;;;;7.60;6.80;;;;;;;;;;5017145;28;20050;-77
2023/08/05 11:53:13;;;;;;;7.93;6.50;;;;;;;;;;5016599;28;20133;-78
2023/08/05 11:55:42;;;;;;;8.25;7.45;;;;;;;;;;5016886;28;20053;-79
2023/08/05 11:58:10;;;;;;;8.57;6.90;;;;;;;;;;5019580;28;20474;-77
2023/08/05 12:00:37;;;;;;;8.52;7.05;;;;;;;;;;5020052;28;20112;-77
2023/08/05 12:03:06;;;;;;;9.02;7.10;;;;;;;;;;5018497;28;20045;-78
2023/08/05 12:05:32;;;;;;;8.00;6.90;;;;;;;;;;5018567;28;20046;-77
2023/08/05 12:08:00;;;;;;;7.60;6.80;;;;;;;;;;5018110;28;20420;-77
2023/08/05 12:10:29;;;;;;;7.80;6.53;;;;;;;;;;5020261;28;20048;-79
2023/08/05 12:12:56;;;;;;;7.10;5.97;;;;;;;;;;5019597;28;20046;-78
2023/08/05 12:15:27;;;;;;;7.25;5.97;;;;;;;;;;5019992;28;20056;-78
2023/08/05 12:17:55;;;;;;;8.40;6.85;;;;;;;;;;5020445;28;20522;-79
2023/08/05 12:20:23;;;;;;;8.23;7.32;;;;;;;;;;5021418;28;20049;-78
2023/08/05 12:22:50;;;;;;;7.18;6.22;;;;;;;;;;5017437;28;20132;-77
2023/08/05 12:25:19;;;;;;;7.72;6.78;;;;;;;;;;5017515;28;20046;-78
2023/08/05 12:27:46;;;;;;;7.88;6.68;;;;;;;;;;5016708;28;20052;-78
2023/08/05 12:30:13;;;;;;;7.93;7.10;;;;;;;;;;5020182;28;20048;-77
2023/08/05 12:32:40;;;;;;;8.00;7.10;;;;;;;;;;5017393;28;20053;-77
2023/08/05 12:35:10;;;;;;;7.75;6.80;;;;;;;;;;5017472;28;20046;-77
2023/08/05 12:37:41;;;;;;;6.28;4.90;;;;;;;;;;5017703;28;20050;-77
2023/08/05 12:40:15;;;;;;;5.93;4.90;;;;;;;;;;5017581;28;20046;-79
2023/08/05 12:42:43;;;;;;;9.55;5.65;;;;;;;;;;5017720;28;20465;-76
2023/08/05 12:45:10;;;;;;;11.30;6.13;;;;;;;;;;5016751;28;20492;-77
2023/08/05 12:47:38;;;;;;;8.82;6.15;;;;;;;;;;5016922;28;20048;-77
2023/08/05 12:50:06;;;;;;;7.22;5.40;;;;;;;;;;5017017;28;20448;-78
2023/08/05 12:52:33;;;;;;;8.48;6.00;;;;;;;;;;5016316;28;20050;-78
2023/08/05 12:54:59;;;;;;;8.60;6.25;;;;;;;;;;5017166;28;20050;-79
2023/08/05 12:57:26;;;;;;;7.40;6.30;;;;;;;;;;5018587;28;20049;-77
2023/08/05 12:59:54;;;;;;;7.28;5.95;;;;;;;;;;5068038;22;20041;-80
2023/08/05 13:02:22;;;;;;;8.18;5.85;;;;;;;;;;5058096;28;20407;-80
2023/08/05 13:04:50;;;;;;;6.88;5.78;;;;;;;;;;5058459;28;20055;-80
2023/08/05 13:07:17;;;;;;;8.15;6.75;;;;;;;;;;5058702;28;20052;-81
2023/08/05 13:09:43;;;;;;;8.45;7.55;;;;;;;;;;5056332;28;20049;-80
2023/08/05 13:12:10;;;;;;;7.45;6.43;;;;;;;;;;5066605;28;20049;-78
2023/08/05 13:14:36;;;;;;;9.45;7.40;;;;;;;;;;5062440;28;20044;-80
2023/08/05 13:17:05;;;;;;;8.55;6.43;;;;;;;;;;5064940;28;20065;-81
2023/08/05 13:19:31;;;;;;;9.15;7.43;;;;;;;;;;5063446;28;20063;-82
2023/08/05 13:21:58;;;;;;;8.60;7.47;;;;;;;;;;5062860;28;20131;-82
2023/08/05 13:24:24;;;;;;;8.30;6.28;;;;;;;;;;5062313;28;20045;-81
2023/08/05 13:26:51;;;;;;;8.35;6.45;;;;;;;;;;5062151;28;20079;-81
2023/08/05 13:29:17;;;;;;;9.27;6.57;;;;;;;;;;5062327;28;20044;-80
2023/08/05 13:31:44;;;;;;;9.40;7.72;;;;;;;;;;5062183;28;20108;-81
2023/08/05 13:34:12;;;;;;;9.57;7.60;;;;;;;;;;5060805;28;20582;-81
2023/08/05 13:36:38;;;;;;;8.07;7.10;;;;;;;;;;5061239;28;20052;-81
2023/08/05 13:39:05;;;;;;;8.32;6.88;;;;;;;;;;5061100;28;20496;-81
2023/08/05 13:41:31;;;;;;;7.65;6.45;;;;;;;;;;5063077;28;20075;-81
2023/08/05 13:43:58;;;;;;;8.38;7.18;;;;;;;;;;5064028;28;20052;-81
2023/08/05 13:46:24;;;;;;;7.50;6.38;;;;;;;;;;5070252;28;20051;-82
2023/08/05 13:48:51;;;;;;;7.72;6.63;;;;;;;;;;5070289;28;20041;-82
2023/08/05 13:51:19;;;;;;;7.57;6.78;;;;;;;;;;5069856;28;20071;-81
2023/08/05 13:53:45;;;;;;;8.95;6.57;;;;;;;;;;5069463;28;20480;-82
2023/08/05 13:56:12;;;;;;;7.80;5.85;;;;;;;;;;5060205;28;20052;-82
2023/08/05 13:58:39;;;;;;;7.53;6.20;;;;;;;;;;5058569;28;20053;-82
2023/08/05 14:01:05;;;;;;;7.30;6.22;;;;;;;;;;5060089;28;20101;-81
2023/08/05 14:03:32;;;;;;;6.07;5.40;;;;;;;;;;5060402;28;20041;-81
2023/08/05 14:05:59;;;;;;;6.20;5.47;;;;;;;;;;5061810;28;20049;-82
2023/08/05 14:08:28;;;;;;;6.50;5.60;;;;;;;;;;5059636;28;20052;-81
2023/08/05 14:10:55;;;;;;;6.63;5.55;;;;;;;;;;5059487;28;20080;-81
2023/08/05 14:13:21;;;;;;;6.25;5.15;;;;;;;;;;5060915;28;20072;-82
2023/08/05 14:15:51;;;;;;;6.95;5.30;;;;;;;;;;5060746;28;20087;-82
2023/08/05 14:18:17;;;;;;;7.45;5.72;;;;;;;;;;5060120;28;20045;-81
2023/08/05 14:20:44;;;;;;;6.95;5.47;;;;;;;;;;5064708;28;20049;-81
2023/08/05 14:23:10;;;;;;;6.65;5.32;;;;;;;;;;5059871;28;20051;-81
2023/08/05 14:25:38;;;;;;;5.97;4.72;;;;;;;;;;5059377;28;20059;-82
2023/08/05 14:28:05;;;;;;;5.10;4.45;;;;;;;;;;5060421;28;20064;-81
2023/08/05 14:30:32;;;;;;;7.32;5.40;;;;;;;;;;5061634;28;20094;-81
2023/08/05 14:32:58;;;;;;;6.03;4.97;;;;;;;;;;5060688;28;20049;-79
2023/08/05 14:35:25;;;;;;;5.95;5.20;;;;;;;;;;5059195;28;20052;-81
2023/08/05 14:37:51;;;;;;;6.40;5.07;;;;;;;;;;5058577;28;20045;-81
2023/08/05 14:40:18;;;;;;;5.88;4.97;;;;;;;;;;5057483;28;20049;-83
2023/08/05 14:42:46;;;;;;;6.72;5.60;;;;;;;;;;5057147;28;20087;-82
2023/08/05 14:45:12;;;;;;;7.43;5.35;;;;;;;;;;5058210;28;20052;-82